createdAt,value
2022-12-13T00:46:14.510Z,16.64
2022-12-13T00:48:42.367Z,16.65
2022-12-13T00:51:10.136Z,16.64
2022-12-13T00:53:37.691Z,16.62
2022-12-13T00:56:05.474Z,16.62
2022-12-13T00:58:33.092Z,16.62
2022-12-13T01:46:25.604Z,16.53
2022-12-13T01:48:55.366Z,16.52
2022-12-13T01:51:24.389Z,16.52
2022-12-13T01:53:52.022Z,16.50
2022-12-13T01:56:20.186Z,16.51
2022-12-13T01:58:47.819Z,16.49
2022-12-13T02:45:17.200Z,16.46
2022-12-13T02:47:49.196Z,16.45
2022-12-13T02:50:16.752Z,16.47
2022-12-13T02:52:46.512Z,16.47
2022-12-13T02:55:15.330Z,16.49
2022-12-13T02:57:44.766Z,16.48
2022-12-13T03:45:18.860Z,16.43
2022-12-13T03:47:46.605Z,16.42
2022-12-13T03:50:26.061Z,16.43
2022-12-13T03:52:59.575Z,16.43
2022-12-13T03:55:27.198Z,16.42
2022-12-13T03:57:54.803Z,16.43
2022-12-13T04:47:12.288Z,16.39
2022-12-13T04:49:39.901Z,16.39
2022-12-13T04:52:07.551Z,16.37
2022-12-13T04:54:36.479Z,16.37
2022-12-13T04:57:06.283Z,16.37
2022-12-13T04:59:33.920Z,16.38
2022-12-13T05:32:25.293Z,16.36
2022-12-13T05:34:52.960Z,16.37
2022-12-13T05:37:20.839Z,16.38
2022-12-13T05:39:48.493Z,16.39
2022-12-13T05:42:16.473Z,16.39
2022-12-13T05:44:44.078Z,16.38
2022-12-13T05:47:11.996Z,16.37
2022-12-13T05:49:40.960Z,16.38
2022-12-13T05:52:15.592Z,16.39
2022-12-13T05:54:43.209Z,16.38
2022-12-13T05:57:10.826Z,16.37
2022-12-13T05:59:38.444Z,16.38
2022-12-13T06:02:06.170Z,16.38
2022-12-13T06:04:34.055Z,16.36
2022-12-13T06:07:04.722Z,16.37
2022-12-13T06:09:32.320Z,16.36
2022-12-13T06:12:31.486Z,16.36
2022-12-13T06:15:00.838Z,16.37
2022-12-13T06:17:44.794Z,16.37
2022-12-13T06:20:23.695Z,16.37
2022-12-13T06:22:53.722Z,16.36
2022-12-13T06:25:30.958Z,16.37
2022-12-13T06:28:01.210Z,16.37
2022-12-13T06:30:29.414Z,16.37
2022-12-13T06:32:57.163Z,16.36
2022-12-13T06:35:28.274Z,16.37
2022-12-13T06:38:01.124Z,16.39
2022-12-13T06:40:30.150Z,16.39
2022-12-13T06:42:58.141Z,16.38
2022-12-13T06:45:25.766Z,16.37
2022-12-13T06:47:53.388Z,16.35
2022-12-13T06:50:20.974Z,16.34
2022-12-13T06:52:48.596Z,16.35
2022-12-13T06:55:23.818Z,11.06
2022-12-13T06:57:51.976Z,11.34
2022-12-13T07:00:22.275Z,13.36
2022-12-13T07:02:53.130Z,14.54
2022-12-13T07:05:21.139Z,15.19
2022-12-13T07:07:48.874Z,15.66
2022-12-13T07:10:22.715Z,15.99
2022-12-13T07:12:50.727Z,16.19
2022-12-13T07:15:18.618Z,16.35
2022-12-13T07:17:46.647Z,16.47
2022-12-13T07:20:15.835Z,16.63
2022-12-13T07:22:48.557Z,16.80
2022-12-13T07:25:26.746Z,16.89
2022-12-13T07:28:02.089Z,16.87
2022-12-13T07:30:30.314Z,16.93
2022-12-13T07:32:58.493Z,16.99
2022-12-13T07:35:26.152Z,16.99
2022-12-13T07:37:53.788Z,16.84
2022-12-13T07:40:22.765Z,16.89
2022-12-13T07:42:50.680Z,16.97
2022-12-13T07:45:19.230Z,17.01
2022-12-13T07:47:46.896Z,16.94
2022-12-13T07:50:25.115Z,16.99
2022-12-13T07:52:53.380Z,17.00
2022-12-13T07:55:32.868Z,17.04
2022-12-13T07:58:06.560Z,17.06
2022-12-13T08:00:35.754Z,17.06
2022-12-13T08:03:03.405Z,17.06
2022-12-13T08:05:38.627Z,17.05
2022-12-13T08:08:07.364Z,17.05
2022-12-13T08:10:36.359Z,17.04
2022-12-13T08:13:04.210Z,17.04
2022-12-13T08:15:31.803Z,17.04
2022-12-13T08:18:00.797Z,17.01
2022-12-13T08:20:28.468Z,16.99
2022-12-13T08:23:02.133Z,16.99
2022-12-13T08:25:30.242Z,16.94
2022-12-13T08:28:02.310Z,16.89
2022-12-13T08:30:31.188Z,16.83
2022-12-13T08:32:59.120Z,16.82
2022-12-13T08:35:34.529Z,16.80
2022-12-13T08:38:02.708Z,16.78
2022-12-13T08:40:30.601Z,16.77
2022-12-13T08:42:59.606Z,16.76
2022-12-13T08:45:27.838Z,16.75
2022-12-13T08:47:55.560Z,16.78
2022-12-13T08:50:23.172Z,16.79
2022-12-13T08:52:50.729Z,16.77
2022-12-13T08:55:23.782Z,16.81
2022-12-13T08:58:00.999Z,16.83
2022-12-13T09:00:29.150Z,16.83
2022-12-13T09:03:04.050Z,16.81
2022-12-13T09:05:32.997Z,16.79
2022-12-13T09:08:04.223Z,16.80
2022-12-13T09:10:38.227Z,16.81
2022-12-13T09:13:11.446Z,16.81
2022-12-13T09:15:51.007Z,16.81
2022-12-13T09:18:24.028Z,16.83
2022-12-13T09:20:53.155Z,16.81
2022-12-13T09:23:23.440Z,16.81
2022-12-13T09:25:56.355Z,16.81
2022-12-13T09:28:35.187Z,16.80
2022-12-13T09:31:03.327Z,16.82
2022-12-13T09:33:31.384Z,16.81
2022-12-13T09:36:01.240Z,16.82
2022-12-13T09:38:29.885Z,16.82
2022-12-13T09:40:58.895Z,16.83
2022-12-13T09:43:31.915Z,16.86
2022-12-13T09:46:02.391Z,16.86
2022-12-13T09:48:35.077Z,16.84
2022-12-13T09:51:17.003Z,16.82
2022-12-13T09:53:51.575Z,16.81
2022-12-13T09:56:21.458Z,16.79
2022-12-13T09:58:49.445Z,16.79
2022-12-13T10:01:22.192Z,16.79
2022-12-13T10:03:52.106Z,16.79
2022-12-13T10:06:23.350Z,16.78
2022-12-13T10:08:57.816Z,16.77
2022-12-13T10:11:31.696Z,16.74
2022-12-13T10:14:01.708Z,16.73
2022-12-13T10:16:37.050Z,16.74
2022-12-13T10:19:11.093Z,16.73
2022-12-13T10:22:01.316Z,16.75
2022-12-13T10:24:36.921Z,16.77
2022-12-13T10:27:11.337Z,16.80
2022-12-13T10:29:40.079Z,16.81
2022-12-13T10:32:13.747Z,16.83
2022-12-13T10:34:41.575Z,16.83
2022-12-13T10:37:16.024Z,16.85
2022-12-13T10:39:44.202Z,16.86
2022-12-13T10:42:13.788Z,16.88
2022-12-13T10:44:51.011Z,16.90
2022-12-13T10:47:22.005Z,16.88
2022-12-13T10:49:59.555Z,16.86
2022-12-13T10:52:31.269Z,16.84
2022-12-13T10:55:01.382Z,16.84
2022-12-13T10:57:29.555Z,16.84
2022-12-13T10:59:57.330Z,16.87
2022-12-13T11:02:34.069Z,16.86
2022-12-13T11:05:14.157Z,16.85
2022-12-13T11:07:51.551Z,16.84
2022-12-13T11:10:27.045Z,16.85
2022-12-13T11:13:00.215Z,16.84
2022-12-13T11:15:29.320Z,16.84
2022-12-13T11:17:59.101Z,16.85
2022-12-13T11:20:27.235Z,16.84
2022-12-13T11:23:00.633Z,16.84
2022-12-13T11:25:29.885Z,16.83
2022-12-13T11:28:01.218Z,16.84
2022-12-13T11:30:31.588Z,16.84
2022-12-13T11:33:10.199Z,16.87
2022-12-13T11:35:42.587Z,16.88
2022-12-13T11:38:12.337Z,16.87
2022-12-13T11:40:42.458Z,16.87
2022-12-13T11:43:19.502Z,16.89
2022-12-13T11:45:48.317Z,16.90
2022-12-13T11:48:18.482Z,16.90
2022-12-13T11:50:47.990Z,16.92
2022-12-13T11:53:19.881Z,16.93
2022-12-13T11:55:48.443Z,16.91
2022-12-13T11:58:19.335Z,16.91
2022-12-13T12:00:52.168Z,16.93
2022-12-13T12:03:21.982Z,16.95
2022-12-13T12:05:56.019Z,16.96
2022-12-13T12:08:31.701Z,16.97
2022-12-13T12:11:02.605Z,16.98
2022-12-13T12:13:31.321Z,16.99
2022-12-13T12:16:00.561Z,16.97
2022-12-13T12:18:29.745Z,16.99
2022-12-13T12:21:01.675Z,16.99
2022-12-13T12:23:32.154Z,16.98
2022-12-13T12:26:01.777Z,16.98
2022-12-13T12:28:30.898Z,16.99
2022-12-13T12:30:59.754Z,16.99
2022-12-13T12:33:31.662Z,16.98
2022-12-13T12:36:15.535Z,16.99
2022-12-13T12:38:54.053Z,16.97
2022-12-13T12:41:24.392Z,16.97
2022-12-13T12:43:53.348Z,16.96
2022-12-13T12:46:29.197Z,16.97
2022-12-13T12:49:06.887Z,16.95
2022-12-13T12:51:36.148Z,16.94
2022-12-13T12:54:09.995Z,16.93
2022-12-13T12:56:39.455Z,16.93
2022-12-13T12:59:11.215Z,16.93
2022-12-13T13:01:46.306Z,16.92
2022-12-13T13:04:22.613Z,16.92
2022-12-13T13:06:51.703Z,16.92
2022-12-13T13:09:24.737Z,16.92
2022-12-13T13:11:57.112Z,16.91
2022-12-13T13:14:29.144Z,16.92
2022-12-13T13:16:56.856Z,16.93
2022-12-13T13:19:40.397Z,16.94
2022-12-13T13:22:31.284Z,16.94
2022-12-13T13:25:14.799Z,16.95
2022-12-13T13:27:42.731Z,16.96
2022-12-13T13:30:16.666Z,16.97
2022-12-13T13:32:44.377Z,16.98
2022-12-13T13:35:27.272Z,16.99
2022-12-13T13:37:57.203Z,17.00
2022-12-13T13:40:30.398Z,17.01
2022-12-13T13:43:08.442Z,17.00
2022-12-13T13:45:51.031Z,17.02
2022-12-13T13:48:45.721Z,17.04
2022-12-13T13:51:29.124Z,17.03
2022-12-13T13:54:15.418Z,17.04
2022-12-13T13:56:49.950Z,17.02
2022-12-13T13:59:33.234Z,17.01
2022-12-13T14:02:29.906Z,17.02
2022-12-13T14:05:11.196Z,17.01
2022-12-13T14:07:52.423Z,17.02
2022-12-13T14:10:36.159Z,17.00
2022-12-13T14:13:25.172Z,17.00
2022-12-13T14:16:12.301Z,16.98
2022-12-13T14:19:14.381Z,16.99
2022-12-13T14:21:45.335Z,16.96
2022-12-13T14:24:16.860Z,16.94
2022-12-13T14:26:54.306Z,16.94
2022-12-13T14:29:23.788Z,16.93
2022-12-13T14:31:51.620Z,16.90
2022-12-13T14:34:22.564Z,16.89
2022-12-13T14:36:57.217Z,16.89
2022-12-13T14:39:26.022Z,16.87
2022-12-13T14:41:56.603Z,16.88
2022-12-13T14:44:26.318Z,16.86
2022-12-13T14:46:54.620Z,16.84
2022-12-13T14:49:24.728Z,16.84
2022-12-13T14:52:00.230Z,16.84
2022-12-13T14:54:28.649Z,16.84
2022-12-13T14:56:57.275Z,16.84
2022-12-13T14:59:25.300Z,16.85
2022-12-13T15:01:59.363Z,16.86
2022-12-13T15:04:29.334Z,16.89
2022-12-13T15:06:58.614Z,16.87
2022-12-13T15:09:29.048Z,16.89
2022-12-13T15:12:02.888Z,16.88
2022-12-13T15:14:43.301Z,16.90
2022-12-13T15:17:21.834Z,16.91
2022-12-13T15:19:54.721Z,16.92
2022-12-13T15:22:29.365Z,16.94
2022-12-13T15:24:57.947Z,16.93
2022-12-13T15:27:30.978Z,16.95
2022-12-13T15:29:58.610Z,16.94
2022-12-13T15:32:26.326Z,16.95
2022-12-13T15:34:55.758Z,16.95
2022-12-13T15:37:29.089Z,16.95
2022-12-13T15:39:59.295Z,16.93
2022-12-13T15:42:30.003Z,16.94
2022-12-13T15:44:58.015Z,16.94
2022-12-13T15:47:27.905Z,16.93
2022-12-13T15:49:58.709Z,16.93
2022-12-13T15:52:33.653Z,16.92
2022-12-13T15:55:02.509Z,16.91
2022-12-13T15:57:30.614Z,16.90
2022-12-13T16:00:08.627Z,16.90
2022-12-13T16:02:46.099Z,16.89
2022-12-13T16:05:20.063Z,16.89
2022-12-13T16:07:56.176Z,16.87
2022-12-13T16:10:24.954Z,16.87
2022-12-13T16:12:53.416Z,16.86
2022-12-13T16:15:29.492Z,16.86
2022-12-13T16:17:59.445Z,16.86
2022-12-13T16:20:28.577Z,16.85
2022-12-13T16:22:59.996Z,16.85
2022-12-13T16:25:27.747Z,16.83
2022-12-13T16:27:55.743Z,16.84
2022-12-13T16:30:24.091Z,16.83
2022-12-13T16:35:41.849Z,16.83
2022-12-13T16:38:10.260Z,16.84
2022-12-13T16:40:54.913Z,16.87
2022-12-13T16:43:27.810Z,16.87
2022-12-13T16:45:59.341Z,16.90
2022-12-13T16:48:27.406Z,16.91
2022-12-13T16:50:57.665Z,16.91
2022-12-13T16:53:25.988Z,16.96
2022-12-13T16:55:58.079Z,17.05
2022-12-13T16:58:26.786Z,17.21
2022-12-13T17:00:58.911Z,17.36
2022-12-13T17:03:28.123Z,17.49
2022-12-13T17:05:58.692Z,17.58
2022-12-13T17:08:26.686Z,17.64
2022-12-13T17:10:58.203Z,17.71
2022-12-13T17:13:26.578Z,17.76
2022-12-13T17:15:59.494Z,17.79
2022-12-13T17:18:28.412Z,17.81
2022-12-13T17:20:58.415Z,17.84
2022-12-13T17:23:27.177Z,17.88
2022-12-13T17:25:57.974Z,17.90
2022-12-13T17:28:26.363Z,17.97
2022-12-13T17:30:54.914Z,17.99
2022-12-13T17:33:23.480Z,18.16
2022-12-13T17:35:51.342Z,18.19
2022-12-13T17:38:20.774Z,18.21
2022-12-13T17:40:54.594Z,18.21
2022-12-13T17:43:33.013Z,18.20
2022-12-13T17:46:02.236Z,18.19
2022-12-13T17:48:35.524Z,18.18
2022-12-13T17:51:08.602Z,18.10
2022-12-13T17:53:37.821Z,18.10
2022-12-13T17:56:07.555Z,18.10
2022-12-13T17:58:35.376Z,18.03
2022-12-13T18:01:10.168Z,18.03
2022-12-13T18:03:38.518Z,18.03
2022-12-13T18:06:07.023Z,18.03
2022-12-13T18:08:35.631Z,18.00
2022-12-13T18:13:54.489Z,17.82
2022-12-13T18:16:22.776Z,17.82
2022-12-13T18:18:54.996Z,17.79
2022-12-13T18:21:23.652Z,17.79
2022-12-13T18:23:55.131Z,17.77
2022-12-13T18:26:25.189Z,17.74
2022-12-13T18:28:52.842Z,17.73
2022-12-13T18:31:21.940Z,17.71
2022-12-13T18:33:50.090Z,17.70
2022-12-13T18:36:17.875Z,17.68
2022-12-13T18:38:45.524Z,17.67
2022-12-13T18:41:14.725Z,17.66
2022-12-13T18:43:43.785Z,17.64
2022-12-13T18:46:11.534Z,17.63
2022-12-13T18:48:39.242Z,17.62
2022-12-13T18:51:07.549Z,17.59
2022-12-13T18:53:35.429Z,17.58
2022-12-13T18:56:04.812Z,17.55
2022-12-13T18:58:32.503Z,17.52
2022-12-13T19:01:01.693Z,17.52
2022-12-13T19:03:30.137Z,17.50
2022-12-13T19:05:58.130Z,17.48
2022-12-13T19:08:26.453Z,17.46
2022-12-13T19:10:54.859Z,17.44
2022-12-13T19:13:23.159Z,17.42
2022-12-13T19:15:50.994Z,17.41
2022-12-13T19:18:20.356Z,17.39
2022-12-13T19:20:48.252Z,17.34
2022-12-13T19:23:16.154Z,17.35
2022-12-13T19:25:43.787Z,17.35
2022-12-13T19:28:17.644Z,17.34
2022-12-13T19:30:45.516Z,17.32
2022-12-13T19:33:13.339Z,17.30
2022-12-13T19:35:42.979Z,17.29
2022-12-13T19:38:11.833Z,17.28
2022-12-13T19:40:39.853Z,17.26
2022-12-13T19:43:07.496Z,17.25
2022-12-13T19:45:35.179Z,17.23
2022-12-13T19:48:02.781Z,17.21
2022-12-13T19:50:30.509Z,17.19
2022-12-13T19:52:59.440Z,17.18
2022-12-13T19:55:27.167Z,17.18
2022-12-13T19:57:54.915Z,17.18
2022-12-13T20:00:22.642Z,17.18
2022-12-13T20:02:51.055Z,17.20
2022-12-13T20:05:18.785Z,17.16
2022-12-13T20:07:47.533Z,17.15
2022-12-13T20:10:17.534Z,17.14
2022-12-13T20:12:45.850Z,17.13
2022-12-13T20:15:13.422Z,17.12
2022-12-13T20:17:42.377Z,17.12
2022-12-13T20:20:11.788Z,17.09
2022-12-13T20:22:39.406Z,17.09
2022-12-13T20:25:08.712Z,17.09
2022-12-13T20:27:37.729Z,17.07
2022-12-13T20:30:05.647Z,17.06
2022-12-13T20:32:33.277Z,17.06
2022-12-13T20:35:00.895Z,17.04
2022-12-13T20:37:28.602Z,17.04
2022-12-13T20:39:56.573Z,17.01
2022-12-13T20:42:24.640Z,17.00
2022-12-13T20:44:53.570Z,17.01
2022-12-13T20:47:21.429Z,16.99
2022-12-13T20:49:49.163Z,16.96
2022-12-13T20:52:16.861Z,16.95
2022-12-13T20:54:44.465Z,16.95
2022-12-13T20:57:12.006Z,16.94
2022-12-13T20:59:39.641Z,16.94
2022-12-13T21:02:08.658Z,16.91
2022-12-13T21:04:38.971Z,16.92
2022-12-13T21:07:09.953Z,16.85
2022-12-13T21:09:37.929Z,16.68
2022-12-13T21:12:05.586Z,16.64
2022-12-13T21:14:34.285Z,16.79
2022-12-13T21:17:04.824Z,16.90
2022-12-13T21:19:39.313Z,16.94
2022-12-13T21:22:07.333Z,16.96
2022-12-13T21:24:34.992Z,16.95
2022-12-13T21:27:02.621Z,16.95
2022-12-13T21:29:30.274Z,16.94
2022-12-13T21:31:58.199Z,16.93
2022-12-13T21:34:25.989Z,16.96
2022-12-13T21:36:55.044Z,16.93
2022-12-13T21:39:23.990Z,16.86
2022-12-13T21:41:52.074Z,16.90
2022-12-13T21:44:19.931Z,16.90
2022-12-13T21:49:35.192Z,16.89
2022-12-13T21:52:04.289Z,16.90
2022-12-13T21:54:31.857Z,16.91
2022-12-13T21:57:16.871Z,16.92
2022-12-13T21:59:44.545Z,16.93
2022-12-13T22:02:12.706Z,16.94
2022-12-13T22:04:41.675Z,16.96
2022-12-13T22:07:11.247Z,16.92
2022-12-13T22:09:38.913Z,16.92
2022-12-13T22:12:09.856Z,16.90
2022-12-13T22:14:37.516Z,16.90
2022-12-13T22:17:05.188Z,16.90
2022-12-13T22:19:32.765Z,16.91
2022-12-13T22:22:00.785Z,16.90
2022-12-13T22:24:29.692Z,16.91
2022-12-13T22:26:57.586Z,16.89
2022-12-13T22:29:25.228Z,16.88
2022-12-13T22:31:52.993Z,16.87
2022-12-13T22:34:21.369Z,16.87
2022-12-13T22:36:48.969Z,16.86
2022-12-13T22:39:16.840Z,16.87
2022-12-13T22:41:45.954Z,16.84
2022-12-13T22:44:13.815Z,16.84
2022-12-13T22:46:41.733Z,16.83
2022-12-13T22:49:09.845Z,16.82
2022-12-13T22:51:37.565Z,16.83
2022-12-13T22:54:05.476Z,16.81
2022-12-13T22:56:33.147Z,16.78
2022-12-13T22:59:02.356Z,16.80
2022-12-13T23:01:31.448Z,16.80
2022-12-13T23:03:59.388Z,16.79
2022-12-13T23:06:27.741Z,16.79
2022-12-13T23:08:55.711Z,16.78
2022-12-13T23:11:40.813Z,16.78
2022-12-13T23:14:12.345Z,16.78
2022-12-13T23:16:40.042Z,16.78
2022-12-13T23:19:39.905Z,16.78
2022-12-13T23:21:55.874Z,16.76
2022-12-13T23:24:23.531Z,16.73
2022-12-13T23:26:51.142Z,16.74
2022-12-13T23:29:20.141Z,16.74
2022-12-13T23:55:07.113Z,16.68
2022-12-13T23:57:34.937Z,16.69
